sensor_id;sensor_type;location;lat;lon;timestamp;pressure;altitude;pressure_sealevel;temperature;humidity
40612;BME280;26317;44.894;20.286;2022-12-18T00:01:03;102227.25;;;2.59;76.75
40612;BME280;26317;44.894;20.286;2022-12-18T00:03:38;102226.09;;;2.62;76.43
40612;BME280;26317;44.894;20.286;2022-12-18T00:06:23;102230.69;;;2.68;77.26
40612;BME280;26317;44.894;20.286;2022-12-18T00:09:02;102241.03;;;2.77;76.37
40612;BME280;26317;44.894;20.286;2022-12-18T00:11:37;102241.88;;;2.78;75.96
40612;BME280;26317;44.894;20.286;2022-12-18T00:14:19;102239.28;;;2.70;76.10
40612;BME280;26317;44.894;20.286;2022-12-18T00:17:09;102252.38;;;2.63;75.70
40612;BME280;26317;44.894;20.286;2022-12-18T00:19:44;102253.47;;;2.77;75.79
40612;BME280;26317;44.894;20.286;2022-12-18T00:22:21;102242.22;;;2.75;75.63
40612;BME280;26317;44.894;20.286;2022-12-18T00:24:50;102233.25;;;2.76;76.73
40612;BME280;26317;44.894;20.286;2022-12-18T00:27:28;102268.53;;;2.99;76.51
40612;BME280;26317;44.894;20.286;2022-12-18T00:30:07;102260.13;;;2.96;77.00
40612;BME280;26317;44.894;20.286;2022-12-18T00:32:45;102269.44;;;2.92;77.02
40612;BME280;26317;44.894;20.286;2022-12-18T00:35:38;102194.41;;;2.68;76.82
40612;BME280;26317;44.894;20.286;2022-12-18T00:38:20;102273.53;;;3.17;75.98
40612;BME280;26317;44.894;20.286;2022-12-18T00:40:56;102286.72;;;3.25;76.03
40612;BME280;26317;44.894;20.286;2022-12-18T00:43:26;102274.28;;;3.26;75.67
40612;BME280;26317;44.894;20.286;2022-12-18T00:45:57;102292.84;;;3.40;75.88
40612;BME280;26317;44.894;20.286;2022-12-18T00:48:28;102297.25;;;3.48;75.14
40612;BME280;26317;44.894;20.286;2022-12-18T00:51:07;102295.50;;;3.40;75.66
40612;BME280;26317;44.894;20.286;2022-12-18T00:53:43;102252.66;;;3.14;75.37
40612;BME280;26317;44.894;20.286;2022-12-18T00:56:16;102300.03;;;3.54;75.83
40612;BME280;26317;44.894;20.286;2022-12-18T00:58:57;102280.25;;;3.42;75.60
40612;BME280;26317;44.894;20.286;2022-12-18T01:01:35;102300.03;;;3.54;75.03
40612;BME280;26317;44.894;20.286;2022-12-18T01:04:14;102300.03;;;3.54;74.83
40612;BME280;26317;44.894;20.286;2022-12-18T01:06:52;102299.81;;;3.41;75.24
40612;BME280;26317;44.894;20.286;2022-12-18T01:09:31;102307.84;;;3.48;75.51
40612;BME280;26317;44.894;20.286;2022-12-18T01:12:05;102307.97;;;3.54;74.87
40612;BME280;26317;44.894;20.286;2022-12-18T01:14:43;102299.81;;;3.56;74.96
40612;BME280;26317;44.894;20.286;2022-12-18T01:17:14;102308.91;;;3.61;75.27
40612;BME280;26317;44.894;20.286;2022-12-18T01:19:54;102294.72;;;3.54;74.60
40612;BME280;26317;44.894;20.286;2022-12-18T01:22:27;102309.91;;;3.60;74.87
40612;BME280;26317;44.894;20.286;2022-12-18T01:25:11;102317.31;;;3.50;73.98
40612;BME280;26317;44.894;20.286;2022-12-18T01:27:47;102319.66;;;3.45;74.61
40612;BME280;26317;44.894;20.286;2022-12-18T01:30:21;102320.22;;;3.55;73.89
40612;BME280;26317;44.894;20.286;2022-12-18T01:32:55;102312.53;;;3.60;74.38
40612;BME280;26317;44.894;20.286;2022-12-18T01:35:50;102316.84;;;3.61;73.69
40612;BME280;26317;44.894;20.286;2022-12-18T01:38:25;102305.31;;;3.54;74.67
40612;BME280;26317;44.894;20.286;2022-12-18T01:41:03;102314.56;;;3.58;73.45
40612;BME280;26317;44.894;20.286;2022-12-18T01:43:51;102314.56;;;3.58;73.57
40612;BME280;26317;44.894;20.286;2022-12-18T01:46:27;102313.38;;;3.61;73.50
40612;BME280;26317;44.894;20.286;2022-12-18T01:49:07;102326.47;;;3.62;73.52
40612;BME280;26317;44.894;20.286;2022-12-18T01:51:38;102327.47;;;3.61;73.98
40612;BME280;26317;44.894;20.286;2022-12-18T01:54:14;102333.41;;;3.63;74.37
40612;BME280;26317;44.894;20.286;2022-12-18T01:56:56;102333.22;;;3.65;74.94
40612;BME280;26317;44.894;20.286;2022-12-18T01:59:33;102329.66;;;3.72;74.08
40612;BME280;26317;44.894;20.286;2022-12-18T02:02:09;102339.72;;;3.62;74.01
40612;BME280;26317;44.894;20.286;2022-12-18T02:04:50;102350.59;;;3.67;74.05
40612;BME280;26317;44.894;20.286;2022-12-18T02:07:30;102342.75;;;3.74;73.78
40612;BME280;26317;44.894;20.286;2022-12-18T02:10:06;102345.25;;;3.76;74.17
40612;BME280;26317;44.894;20.286;2022-12-18T02:12:47;102351.09;;;3.71;74.92
40612;BME280;26317;44.894;20.286;2022-12-18T02:15:40;102351.88;;;3.71;74.07
40612;BME280;26317;44.894;20.286;2022-12-18T02:18:33;102362.13;;;3.60;75.24
40612;BME280;26317;44.894;20.286;2022-12-18T02:21:18;102363.31;;;3.57;74.97
40612;BME280;26317;44.894;20.286;2022-12-18T02:23:59;102358.38;;;3.54;74.54
40612;BME280;26317;44.894;20.286;2022-12-18T02:26:56;102361.41;;;3.66;74.81
40612;BME280;26317;44.894;20.286;2022-12-18T02:29:36;102291.63;;;3.28;74.81
40612;BME280;26317;44.894;20.286;2022-12-18T02:32:16;102360.75;;;3.64;75.10
40612;BME280;26317;44.894;20.286;2022-12-18T02:34:52;102373.63;;;3.52;75.14
40612;BME280;26317;44.894;20.286;2022-12-18T02:37:32;102378.88;;;3.60;75.39
40612;BME280;26317;44.894;20.286;2022-12-18T02:40:11;102355.13;;;3.44;75.53
40612;BME280;26317;44.894;20.286;2022-12-18T02:42:53;102369.09;;;3.38;75.78
40612;BME280;26317;44.894;20.286;2022-12-18T02:45:29;102370.94;;;3.15;76.39
40612;BME280;26317;44.894;20.286;2022-12-18T02:47:59;102374.38;;;3.23;76.52
40612;BME280;26317;44.894;20.286;2022-12-18T02:53:26;102386.03;;;3.14;75.31
40612;BME280;26317;44.894;20.286;2022-12-18T02:56:09;102392.78;;;2.94;76.47
40612;BME280;26317;44.894;20.286;2022-12-18T02:59:06;102389.31;;;2.94;76.51
40612;BME280;26317;44.894;20.286;2022-12-18T03:02:07;102385.38;;;2.90;77.83
40612;BME280;26317;44.894;20.286;2022-12-18T03:05:15;102381.66;;;2.68;79.13
40612;BME280;26317;44.894;20.286;2022-12-18T03:07:55;102383.16;;;2.70;79.02
40612;BME280;26317;44.894;20.286;2022-12-18T03:10:51;102391.19;;;2.54;78.16
40612;BME280;26317;44.894;20.286;2022-12-18T03:13:56;102389.34;;;2.55;78.11
40612;BME280;26317;44.894;20.286;2022-12-18T03:16:42;102391.16;;;2.62;77.41
40612;BME280;26317;44.894;20.286;2022-12-18T03:19:16;102387.88;;;2.52;78.01
40612;BME280;26317;44.894;20.286;2022-12-18T03:21:55;102397.00;;;2.50;77.81
40612;BME280;26317;44.894;20.286;2022-12-18T03:24:28;102390.91;;;2.41;77.99
40612;BME280;26317;44.894;20.286;2022-12-18T03:27:11;102405.78;;;2.42;77.76
40612;BME280;26317;44.894;20.286;2022-12-18T03:30:07;102405.78;;;2.42;77.84
40612;BME280;26317;44.894;20.286;2022-12-18T03:32:46;102387.13;;;2.27;78.07
40612;BME280;26317;44.894;20.286;2022-12-18T03:35:27;102405.66;;;2.27;78.47
40612;BME280;26317;44.894;20.286;2022-12-18T03:38:04;102409.97;;;2.28;78.85
40612;BME280;26317;44.894;20.286;2022-12-18T03:40:44;102410.34;;;2.09;78.99
40612;BME280;26317;44.894;20.286;2022-12-18T03:43:34;102401.09;;;1.97;79.74
40612;BME280;26317;44.894;20.286;2022-12-18T03:46:22;102406.88;;;2.09;79.25
40612;BME280;26317;44.894;20.286;2022-12-18T03:49:11;102413.16;;;2.16;79.26
40612;BME280;26317;44.894;20.286;2022-12-18T03:52:02;102413.16;;;2.16;79.27
40612;BME280;26317;44.894;20.286;2022-12-18T03:54:53;102412.47;;;2.14;78.84
40612;BME280;26317;44.894;20.286;2022-12-18T03:57:33;102418.44;;;2.24;78.27
40612;BME280;26317;44.894;20.286;2022-12-18T04:00:21;102409.81;;;2.22;78.22
40612;BME280;26317;44.894;20.286;2022-12-18T04:03:12;102429.00;;;2.24;78.73
40612;BME280;26317;44.894;20.286;2022-12-18T04:05:54;102423.88;;;2.22;79.26
40612;BME280;26317;44.894;20.286;2022-12-18T04:08:36;102428.66;;;2.27;78.78
40612;BME280;26317;44.894;20.286;2022-12-18T04:11:12;102434.78;;;2.27;79.01
40612;BME280;26317;44.894;20.286;2022-12-18T04:13:46;102433.97;;;2.27;78.49
40612;BME280;26317;44.894;20.286;2022-12-18T04:16:27;102428.16;;;2.31;78.35
40612;BME280;26317;44.894;20.286;2022-12-18T04:19:28;102441.88;;;2.35;78.70
40612;BME280;26317;44.894;20.286;2022-12-18T04:22:09;102451.47;;;2.44;78.17
40612;BME280;26317;44.894;20.286;2022-12-18T04:24:49;102450.50;;;2.37;77.80
40612;BME280;26317;44.894;20.286;2022-12-18T04:27:31;102464.06;;;2.26;78.89
40612;BME280;26317;44.894;20.286;2022-12-18T04:30:15;102459.13;;;2.15;79.11
40612;BME280;26317;44.894;20.286;2022-12-18T04:32:52;102469.41;;;2.10;79.00
40612;BME280;26317;44.894;20.286;2022-12-18T04:35:37;102451.88;;;2.01;79.93
40612;BME280;26317;44.894;20.286;2022-12-18T04:38:13;102477.69;;;2.07;80.10
40612;BME280;26317;44.894;20.286;2022-12-18T04:40:55;102478.31;;;2.09;80.08
40612;BME280;26317;44.894;20.286;2022-12-18T04:43:40;102480.97;;;2.09;80.02
40612;BME280;26317;44.894;20.286;2022-12-18T04:46:15;102485.28;;;2.10;79.96
40612;BME280;26317;44.894;20.286;2022-12-18T04:48:49;102492.38;;;2.09;80.71
40612;BME280;26317;44.894;20.286;2022-12-18T04:51:24;102495.38;;;2.06;80.93
40612;BME280;26317;44.894;20.286;2022-12-18T04:53:57;102502.97;;;1.93;81.52
40612;BME280;26317;44.894;20.286;2022-12-18T04:56:26;102516.06;;;1.87;81.41
40612;BME280;26317;44.894;20.286;2022-12-18T04:59:07;102517.53;;;1.89;81.63
40612;BME280;26317;44.894;20.286;2022-12-18T05:01:46;102524.81;;;1.71;81.57
40612;BME280;26317;44.894;20.286;2022-12-18T05:04:23;102518.00;;;1.60;82.78
40612;BME280;26317;44.894;20.286;2022-12-18T05:06:58;102532.41;;;1.74;82.08
40612;BME280;26317;44.894;20.286;2022-12-18T05:09:27;102525.28;;;1.66;81.62
40612;BME280;26317;44.894;20.286;2022-12-18T05:12:14;102529.53;;;1.51;82.89
40612;BME280;26317;44.894;20.286;2022-12-18T05:14:52;102538.16;;;1.53;82.38
40612;BME280;26317;44.894;20.286;2022-12-18T05:17:22;102544.75;;;1.49;81.99
40612;BME280;26317;44.894;20.286;2022-12-18T05:20:06;102540.66;;;1.63;82.35
40612;BME280;26317;44.894;20.286;2022-12-18T05:22:52;102549.41;;;1.63;82.10
40612;BME280;26317;44.894;20.286;2022-12-18T05:25:28;102539.81;;;1.46;82.04
40612;BME280;26317;44.894;20.286;2022-12-18T05:28:01;102560.59;;;1.41;82.58
40612;BME280;26317;44.894;20.286;2022-12-18T05:30:36;102553.63;;;1.32;83.84
40612;BME280;26317;44.894;20.286;2022-12-18T05:33:09;102556.25;;;1.24;84.40
40612;BME280;26317;44.894;20.286;2022-12-18T05:35:50;102564.00;;;1.25;84.25
40612;BME280;26317;44.894;20.286;2022-12-18T05:38:40;102566.47;;;1.19;84.24
40612;BME280;26317;44.894;20.286;2022-12-18T05:41:17;102560.53;;;1.17;83.88
40612;BME280;26317;44.894;20.286;2022-12-18T05:43:55;102571.25;;;1.15;84.06
40612;BME280;26317;44.894;20.286;2022-12-18T05:46:30;102581.09;;;1.05;84.75
40612;BME280;26317;44.894;20.286;2022-12-18T05:49:11;102577.66;;;1.13;85.33
40612;BME280;26317;44.894;20.286;2022-12-18T05:51:44;102577.41;;;1.24;84.00
40612;BME280;26317;44.894;20.286;2022-12-18T05:54:32;102574.22;;;1.12;84.99
40612;BME280;26317;44.894;20.286;2022-12-18T05:57:22;102587.47;;;1.20;84.97
40612;BME280;26317;44.894;20.286;2022-12-18T06:00:13;102582.78;;;1.14;84.29
40612;BME280;26317;44.894;20.286;2022-12-18T06:02:50;102590.25;;;1.19;84.02
40612;BME280;26317;44.894;20.286;2022-12-18T06:05:24;102598.66;;;1.14;85.42
40612;BME280;26317;44.894;20.286;2022-12-18T06:08:06;102590.69;;;1.06;85.25
40612;BME280;26317;44.894;20.286;2022-12-18T06:10:54;102600.81;;;1.19;83.98
40612;BME280;26317;44.894;20.286;2022-12-18T06:13:30;102576.03;;;1.12;83.42
40612;BME280;26317;44.894;20.286;2022-12-18T06:16:14;102603.50;;;1.27;83.94
40612;BME280;26317;44.894;20.286;2022-12-18T06:18:49;102596.44;;;1.02;84.42
40612;BME280;26317;44.894;20.286;2022-12-18T06:21:23;102600.28;;;1.07;84.95
40612;BME280;26317;44.894;20.286;2022-12-18T06:23:52;102602.44;;;1.12;84.98
40612;BME280;26317;44.894;20.286;2022-12-18T06:26:31;102607.72;;;1.12;84.42
40612;BME280;26317;44.894;20.286;2022-12-18T06:29:02;102619.59;;;1.08;84.41
40612;BME280;26317;44.894;20.286;2022-12-18T06:31:42;102611.53;;;1.17;83.93
40612;BME280;26317;44.894;20.286;2022-12-18T06:34:27;102616.69;;;1.19;83.59
40612;BME280;26317;44.894;20.286;2022-12-18T06:37:10;102616.84;;;1.25;84.09
40612;BME280;26317;44.894;20.286;2022-12-18T06:39:45;102631.13;;;1.32;83.94
40612;BME280;26317;44.894;20.286;2022-12-18T06:42:31;102638.09;;;1.42;83.42
40612;BME280;26317;44.894;20.286;2022-12-18T06:45:04;102645.84;;;1.43;83.19
40612;BME280;26317;44.894;20.286;2022-12-18T06:47:38;102641.06;;;1.47;83.22
40612;BME280;26317;44.894;20.286;2022-12-18T06:50:13;102640.84;;;1.32;84.09
40612;BME280;26317;44.894;20.286;2022-12-18T06:52:48;102657.59;;;1.41;84.02
40612;BME280;26317;44.894;20.286;2022-12-18T06:55:19;102649.19;;;1.45;83.77
40612;BME280;26317;44.894;20.286;2022-12-18T06:58:00;102654.31;;;1.55;83.88
40612;BME280;26317;44.894;20.286;2022-12-18T07:00:38;102667.03;;;1.51;84.15
40612;BME280;26317;44.894;20.286;2022-12-18T07:03:15;102663.06;;;1.47;83.62
40612;BME280;26317;44.894;20.286;2022-12-18T07:05:47;102671.28;;;1.36;84.37
40612;BME280;26317;44.894;20.286;2022-12-18T07:08:39;102669.34;;;1.46;83.64
40612;BME280;26317;44.894;20.286;2022-12-18T07:11:21;102671.00;;;1.47;84.05
40612;BME280;26317;44.894;20.286;2022-12-18T07:14:10;102675.13;;;1.42;84.78
40612;BME280;26317;44.894;20.286;2022-12-18T07:16:45;102685.78;;;1.32;84.43
40612;BME280;26317;44.894;20.286;2022-12-18T07:19:38;102633.69;;;0.90;85.31
40612;BME280;26317;44.894;20.286;2022-12-18T07:22:12;102689.31;;;1.15;86.37
40612;BME280;26317;44.894;20.286;2022-12-18T07:24:50;102690.63;;;1.11;85.47
40612;BME280;26317;44.894;20.286;2022-12-18T07:27:25;102703.09;;;1.01;85.87
40612;BME280;26317;44.894;20.286;2022-12-18T07:30:21;102704.44;;;1.05;85.09
40612;BME280;26317;44.894;20.286;2022-12-18T07:32:54;102706.09;;;1.06;84.33
40612;BME280;26317;44.894;20.286;2022-12-18T07:35:27;102720.50;;;0.85;85.18
40612;BME280;26317;44.894;20.286;2022-12-18T07:38:15;102714.63;;;0.91;84.98
40612;BME280;26317;44.894;20.286;2022-12-18T07:40:47;102718.94;;;1.01;84.93
40612;BME280;26317;44.894;20.286;2022-12-18T07:43:19;102715.75;;;1.15;84.71
40612;BME280;26317;44.894;20.286;2022-12-18T07:46:04;102708.66;;;1.15;84.63
40612;BME280;26317;44.894;20.286;2022-12-18T07:48:54;102734.72;;;1.36;84.09
40612;BME280;26317;44.894;20.286;2022-12-18T07:51:25;102689.94;;;1.09;82.53
40612;BME280;26317;44.894;20.286;2022-12-18T07:54:06;102728.34;;;1.21;82.28
40612;BME280;26317;44.894;20.286;2022-12-18T07:56:49;102734.09;;;1.16;82.63
40612;BME280;26317;44.894;20.286;2022-12-18T07:59:22;102725.16;;;1.17;82.77
40612;BME280;26317;44.894;20.286;2022-12-18T08:02:11;102733.81;;;1.02;83.10
40612;BME280;26317;44.894;20.286;2022-12-18T08:04:52;102734.06;;;1.08;83.04
40612;BME280;26317;44.894;20.286;2022-12-18T08:07:26;102735.53;;;1.11;83.23
40612;BME280;26317;44.894;20.286;2022-12-18T08:09:58;102739.47;;;1.07;82.41
40612;BME280;26317;44.894;20.286;2022-12-18T08:12:27;102747.94;;;1.10;83.17
40612;BME280;26317;44.894;20.286;2022-12-18T08:15:09;102742.13;;;1.07;83.30
40612;BME280;26317;44.894;20.286;2022-12-18T08:17:59;102747.38;;;1.24;82.84
40612;BME280;26317;44.894;20.286;2022-12-18T08:20:35;102745.72;;;1.23;81.79
40612;BME280;26317;44.894;20.286;2022-12-18T08:23:09;102757.13;;;1.24;82.24
40612;BME280;26317;44.894;20.286;2022-12-18T08:25:51;102755.34;;;1.07;82.47
40612;BME280;26317;44.894;20.286;2022-12-18T08:28:27;102763.06;;;1.00;84.10
40612;BME280;26317;44.894;20.286;2022-12-18T08:31:09;102768.28;;;1.18;82.58
40612;BME280;26317;44.894;20.286;2022-12-18T08:33:58;102757.91;;;1.16;82.61
40612;BME280;26317;44.894;20.286;2022-12-18T08:36:28;102706.97;;;0.88;82.09
40612;BME280;26317;44.894;20.286;2022-12-18T08:39:08;102774.00;;;1.31;82.54
40612;BME280;26317;44.894;20.286;2022-12-18T08:41:44;102774.09;;;1.47;82.66
40612;BME280;26317;44.894;20.286;2022-12-18T08:44:41;102774.47;;;1.52;81.57
40612;BME280;26317;44.894;20.286;2022-12-18T08:47:09;102755.97;;;1.26;81.71
40612;BME280;26317;44.894;20.286;2022-12-18T08:49:59;102783.03;;;1.46;81.04
40612;BME280;26317;44.894;20.286;2022-12-18T08:52:31;102783.38;;;1.51;80.95
40612;BME280;26317;44.894;20.286;2022-12-18T08:55:10;102778.00;;;1.61;81.01
40612;BME280;26317;44.894;20.286;2022-12-18T08:57:50;102780.88;;;1.75;81.08
40612;BME280;26317;44.894;20.286;2022-12-18T09:00:23;102782.47;;;1.94;80.44
40612;BME280;26317;44.894;20.286;2022-12-18T09:03:02;102777.00;;;1.88;80.45
40612;BME280;26317;44.894;20.286;2022-12-18T09:05:46;102788.09;;;1.91;78.86
40612;BME280;26317;44.894;20.286;2022-12-18T09:08:18;102748.81;;;1.70;79.29
40612;BME280;26317;44.894;20.286;2022-12-18T09:10:58;102768.88;;;1.89;79.29
40612;BME280;26317;44.894;20.286;2022-12-18T09:13:31;102781.84;;;2.00;79.20
40612;BME280;26317;44.894;20.286;2022-12-18T09:16:03;102783.19;;;2.04;79.02
40612;BME280;26317;44.894;20.286;2022-12-18T09:18:36;102787.97;;;2.09;78.74
40612;BME280;26317;44.894;20.286;2022-12-18T09:21:22;102781.53;;;2.03;79.05
40612;BME280;26317;44.894;20.286;2022-12-18T09:23:55;102773.97;;;2.16;79.83
40612;BME280;26317;44.894;20.286;2022-12-18T09:26:27;102779.06;;;2.10;78.55
40612;BME280;26317;44.894;20.286;2022-12-18T09:29:17;102785.97;;;2.03;79.22
40612;BME280;26317;44.894;20.286;2022-12-18T09:31:47;102787.03;;;2.18;78.66
40612;BME280;26317;44.894;20.286;2022-12-18T09:34:28;102769.31;;;2.18;77.63
40612;BME280;26317;44.894;20.286;2022-12-18T09:37:14;102789.50;;;2.11;77.56
40612;BME280;26317;44.894;20.286;2022-12-18T09:39:49;102799.94;;;2.13;77.88
40612;BME280;26317;44.894;20.286;2022-12-18T09:42:26;102800.94;;;2.20;78.64
40612;BME280;26317;44.894;20.286;2022-12-18T09:45:03;102776.63;;;2.16;78.25
40612;BME280;26317;44.894;20.286;2022-12-18T09:47:39;102788.72;;;2.27;77.64
40612;BME280;26317;44.894;20.286;2022-12-18T09:50:37;102797.00;;;2.32;77.82
40612;BME280;26317;44.894;20.286;2022-12-18T09:53:34;102798.69;;;2.41;77.57
40612;BME280;26317;44.894;20.286;2022-12-18T09:56:15;102802.09;;;2.25;78.28
40612;BME280;26317;44.894;20.286;2022-12-18T09:58:56;102800.63;;;2.31;78.20
40612;BME280;26317;44.894;20.286;2022-12-18T10:01:32;102794.38;;;2.40;78.13
40612;BME280;26317;44.894;20.286;2022-12-18T10:04:23;102751.78;;;2.17;79.07
40612;BME280;26317;44.894;20.286;2022-12-18T10:07:03;102790.53;;;2.26;79.49
40612;BME280;26317;44.894;20.286;2022-12-18T10:09:46;102802.25;;;2.16;79.54
40612;BME280;26317;44.894;20.286;2022-12-18T10:12:24;102795.53;;;2.38;79.59
40612;BME280;26317;44.894;20.286;2022-12-18T10:15:00;102811.53;;;2.20;77.85
40612;BME280;26317;44.894;20.286;2022-12-18T10:17:42;102808.50;;;2.07;79.89
40612;BME280;26317;44.894;20.286;2022-12-18T10:20:26;102797.09;;;2.14;80.01
40612;BME280;26317;44.894;20.286;2022-12-18T10:23:13;102789.41;;;2.37;79.65
40612;BME280;26317;44.894;20.286;2022-12-18T10:26:10;102795.88;;;2.43;80.23
40612;BME280;26317;44.894;20.286;2022-12-18T10:28:50;102797.38;;;2.45;79.40
40612;BME280;26317;44.894;20.286;2022-12-18T10:31:29;102804.34;;;2.54;78.39
40612;BME280;26317;44.894;20.286;2022-12-18T10:34:07;102799.22;;;2.53;78.63
40612;BME280;26317;44.894;20.286;2022-12-18T10:36:48;102782.91;;;2.23;77.94
40612;BME280;26317;44.894;20.286;2022-12-18T10:39:22;102807.91;;;2.21;78.31
40612;BME280;26317;44.894;20.286;2022-12-18T10:42:14;102805.53;;;2.10;78.42
40612;BME280;26317;44.894;20.286;2022-12-18T10:45:02;102793.97;;;2.19;79.14
40612;BME280;26317;44.894;20.286;2022-12-18T10:47:35;102806.94;;;2.38;77.35
40612;BME280;26317;44.894;20.286;2022-12-18T10:50:11;102800.31;;;2.34;76.53
40612;BME280;26317;44.894;20.286;2022-12-18T10:52:57;102810.13;;;2.50;76.75
40612;BME280;26317;44.894;20.286;2022-12-18T10:55:45;102812.13;;;2.56;77.40
40612;BME280;26317;44.894;20.286;2022-12-18T10:58:31;102806.53;;;2.67;77.18
40612;BME280;26317;44.894;20.286;2022-12-18T11:01:17;102800.06;;;2.61;77.56
40612;BME280;26317;44.894;20.286;2022-12-18T11:04:00;102795.75;;;2.60;77.65
40612;BME280;26317;44.894;20.286;2022-12-18T11:06:33;102794.25;;;2.58;76.96
40612;BME280;26317;44.894;20.286;2022-12-18T11:09:24;102786.28;;;2.42;76.69
40612;BME280;26317;44.894;20.286;2022-12-18T11:12:01;102800.53;;;2.49;76.61
40612;BME280;26317;44.894;20.286;2022-12-18T11:14:50;102791.91;;;2.47;77.46
40612;BME280;26317;44.894;20.286;2022-12-18T11:17:36;102782.84;;;2.57;77.55
40612;BME280;26317;44.894;20.286;2022-12-18T11:20:30;102782.84;;;2.65;77.07
40612;BME280;26317;44.894;20.286;2022-12-18T11:23:10;102772.75;;;2.93;77.64
40612;BME280;26317;44.894;20.286;2022-12-18T11:25:53;102782.88;;;2.98;78.12
40612;BME280;26317;44.894;20.286;2022-12-18T11:28:46;102786.50;;;2.89;75.37
40612;BME280;26317;44.894;20.286;2022-12-18T11:31:30;102784.88;;;2.80;75.69
40612;BME280;26317;44.894;20.286;2022-12-18T11:34:11;102793.59;;;2.72;75.28
40612;BME280;26317;44.894;20.286;2022-12-18T11:36:48;102785.50;;;2.73;75.85
40612;BME280;26317;44.894;20.286;2022-12-18T11:39:26;102786.47;;;2.64;75.14
40612;BME280;26317;44.894;20.286;2022-12-18T11:42:17;102784.81;;;2.63;75.14
40612;BME280;26317;44.894;20.286;2022-12-18T11:44:52;102781.03;;;2.74;75.23
40612;BME280;26317;44.894;20.286;2022-12-18T11:47:42;102784.88;;;2.88;75.83
40612;BME280;26317;44.894;20.286;2022-12-18T11:50:21;102785.38;;;3.07;76.49
40612;BME280;26317;44.894;20.286;2022-12-18T11:53:11;102795.13;;;3.07;75.57
40612;BME280;26317;44.894;20.286;2022-12-18T11:55:51;102788.16;;;3.22;75.69
40612;BME280;26317;44.894;20.286;2022-12-18T11:58:50;102781.22;;;3.21;73.74
40612;BME280;26317;44.894;20.286;2022-12-18T12:01:54;102789.84;;;3.07;73.88
40612;BME280;26317;44.894;20.286;2022-12-18T12:07:52;102797.78;;;3.07;74.49
40612;BME280;26317;44.894;20.286;2022-12-18T12:10:36;102800.09;;;3.10;74.84
40612;BME280;26317;44.894;20.286;2022-12-18T12:13:27;102803.56;;;3.27;74.41
40612;BME280;26317;44.894;20.286;2022-12-18T12:16:17;102803.41;;;3.36;73.08
40612;BME280;26317;44.894;20.286;2022-12-18T12:19:03;102793.63;;;3.37;73.37
40612;BME280;26317;44.894;20.286;2022-12-18T12:21:49;102793.47;;;3.30;75.40
40612;BME280;26317;44.894;20.286;2022-12-18T12:24:39;102789.00;;;3.14;74.72
40612;BME280;26317;44.894;20.286;2022-12-18T12:27:24;102789.34;;;3.11;74.49
40612;BME280;26317;44.894;20.286;2022-12-18T12:30:21;102788.19;;;2.98;75.05
40612;BME280;26317;44.894;20.286;2022-12-18T12:33:36;102782.88;;;2.98;75.46
40612;BME280;26317;44.894;20.286;2022-12-18T12:36:18;102776.25;;;3.10;75.14
40612;BME280;26317;44.894;20.286;2022-12-18T12:38:57;102775.41;;;3.09;73.51
40612;BME280;26317;44.894;20.286;2022-12-18T12:41:44;102773.94;;;3.15;74.21
40612;BME280;26317;44.894;20.286;2022-12-18T12:44:31;102771.44;;;3.13;76.20
40612;BME280;26317;44.894;20.286;2022-12-18T12:47:15;102758.03;;;3.07;75.63
40612;BME280;26317;44.894;20.286;2022-12-18T12:50:03;102777.38;;;3.32;74.81
40612;BME280;26317;44.894;20.286;2022-12-18T12:52:47;102770.59;;;3.29;74.21
40612;BME280;26317;44.894;20.286;2022-12-18T12:55:41;102791.13;;;3.35;73.63
40612;BME280;26317;44.894;20.286;2022-12-18T12:58:36;102786.16;;;3.40;74.21
40612;BME280;26317;44.894;20.286;2022-12-18T13:01:22;102781.53;;;3.34;74.87
40612;BME280;26317;44.894;20.286;2022-12-18T13:04:17;102792.28;;;3.49;75.14
40612;BME280;26317;44.894;20.286;2022-12-18T13:06:58;102800.59;;;3.46;73.86
40612;BME280;26317;44.894;20.286;2022-12-18T13:13:03;102802.41;;;3.53;72.54
40612;BME280;26317;44.894;20.286;2022-12-18T13:16:03;102810.69;;;3.58;72.91
40612;BME280;26317;44.894;20.286;2022-12-18T13:18:37;102812.34;;;3.51;73.12
40612;BME280;26317;44.894;20.286;2022-12-18T13:21:16;102818.31;;;3.45;73.21
40612;BME280;26317;44.894;20.286;2022-12-18T13:23:56;102816.50;;;3.46;73.78
40612;BME280;26317;44.894;20.286;2022-12-18T13:26:32;102826.63;;;3.42;73.75
40612;BME280;26317;44.894;20.286;2022-12-18T13:32:36;102826.78;;;3.33;73.07
40612;BME280;26317;44.894;20.286;2022-12-18T13:38:45;102825.63;;;3.27;74.11
40612;BME280;26317;44.894;20.286;2022-12-18T13:41:24;102817.34;;;3.14;74.63
40612;BME280;26317;44.894;20.286;2022-12-18T13:43:57;102836.06;;;3.20;74.71
40612;BME280;26317;44.894;20.286;2022-12-18T13:46:45;102827.44;;;3.27;75.85
40612;BME280;26317;44.894;20.286;2022-12-18T13:49:53;102826.31;;;3.21;75.34
40612;BME280;26317;44.894;20.286;2022-12-18T13:52:26;102832.25;;;3.15;75.94
40612;BME280;26317;44.894;20.286;2022-12-18T13:55:02;102840.53;;;3.20;74.55
40612;BME280;26317;44.894;20.286;2022-12-18T13:58:03;102839.88;;;3.26;73.99
40612;BME280;26317;44.894;20.286;2022-12-18T14:00:36;102835.72;;;3.32;74.07
40612;BME280;26317;44.894;20.286;2022-12-18T14:03:34;102842.38;;;3.36;74.29
40612;BME280;26317;44.894;20.286;2022-12-18T14:06:11;102821.66;;;3.31;73.25
40612;BME280;26317;44.894;20.286;2022-12-18T14:08:46;102831.25;;;3.40;73.70
40612;BME280;26317;44.894;20.286;2022-12-18T14:11:23;102850.16;;;3.53;74.13
40612;BME280;26317;44.894;20.286;2022-12-18T14:13:58;102859.44;;;3.57;73.90
40612;BME280;26317;44.894;20.286;2022-12-18T14:16:44;102859.94;;;3.45;73.48
40612;BME280;26317;44.894;20.286;2022-12-18T14:19:19;102861.41;;;3.31;72.78